Time;durP1;ratioP1;P1;durP2;ratioP2;P2;SDS_P1;SDS_P2;PMS_P1;PMS_P2;Temp;Humidity;BMP_temperature;BMP_pressure;BME280_temperature;BME280_humidity;BME280_pressure;Samples;Min_cycle;Max_cycle;Signal;HPM_P1;HPM_P2
2022/11/06 00:01:31;;;;;;;51.47;26.95;;;6.90;99.90;;;;;;5089591;28;20139;-82
2022/11/06 00:03:56;;;;;;;61.40;30.70;;;6.90;99.90;;;;;;5072315;28;20035;-84
2022/11/06 00:09:10;;;;;;;64.28;26.80;;;6.90;99.90;;;;;;5073415;28;20089;-86
2022/11/06 00:11:36;;;;;;;63.22;28.08;;;6.90;99.90;;;;;;5073506;28;20025;-85
2022/11/06 00:14:02;;;;;;;57.20;26.98;;;6.90;99.90;;;;;;5089195;28;20482;-83
2022/11/06 00:16:28;;;;;;;55.97;28.90;;;6.90;99.90;;;;;;5081742;28;20030;-82
2022/11/06 00:18:54;;;;;;;60.80;32.08;;;6.90;99.90;;;;;;5103375;28;20024;-84
2022/11/06 00:21:22;;;;;;;64.13;31.55;;;6.80;99.90;;;;;;5093972;28;20020;-85
2022/11/06 00:23:50;;;;;;;56.45;27.85;;;6.90;99.90;;;;;;5106907;28;20054;-83
2022/11/06 00:26:26;;;;;;;56.20;28.70;;;6.80;99.90;;;;;;5089338;28;20012;-83
2022/11/06 00:28:52;;;;;;;57.00;29.58;;;6.80;99.90;;;;;;5088807;28;20029;-85
2022/11/06 00:31:22;;;;;;;58.17;27.90;;;6.80;99.90;;;;;;5088730;28;20067;-85
2022/11/06 00:33:48;;;;;;;56.47;30.33;;;6.80;99.90;;;;;;5073243;28;20063;-82
2022/11/06 00:36:17;;;;;;;58.95;30.02;;;6.80;99.90;;;;;;5071962;28;20478;-83
2022/11/06 00:38:44;;;;;;;51.72;28.95;;;6.80;99.90;;;;;;5088925;28;20115;-84
2022/11/06 00:41:12;;;;;;;61.45;28.17;;;6.70;99.90;;;;;;5073057;28;20066;-84
2022/11/06 00:43:38;;;;;;;49.45;26.73;;;6.70;99.90;;;;;;5088405;28;20031;-84
2022/11/06 00:46:10;;;;;;;59.13;27.85;;;6.80;99.90;;;;;;5071929;28;20017;-83
2022/11/06 00:48:36;;;;;;;66.83;30.83;;;6.70;99.90;;;;;;5071281;28;20021;-83
2022/11/06 00:51:06;;;;;;;55.33;29.30;;;6.70;99.90;;;;;;5071522;28;20042;-82
2022/11/06 00:53:32;;;;;;;67.78;30.52;;;6.70;99.90;;;;;;5071937;28;20050;-82
2022/11/06 00:56:04;;;;;;;60.58;29.35;;;6.70;99.90;;;;;;5071831;28;20069;-82
2022/11/06 00:58:30;;;;;;;62.10;30.80;;;6.70;99.90;;;;;;5073156;28;20070;-83
2022/11/06 01:01:03;;;;;;;54.00;27.92;;;6.70;99.90;;;;;;5071809;28;20016;-84
2022/11/06 01:03:29;;;;;;;62.15;29.48;;;6.60;99.90;;;;;;5073235;28;20222;-84
2022/11/06 01:05:54;;;;;;;64.43;29.00;;;6.60;99.90;;;;;;5073144;28;20115;-84
2022/11/06 01:08:20;;;;;;;56.72;29.20;;;6.60;99.90;;;;;;5073455;28;20028;-85
2022/11/06 01:10:45;;;;;;;58.88;26.80;;;6.60;99.90;;;;;;5071637;28;20027;-82
2022/11/06 01:13:11;;;;;;;63.92;28.05;;;6.50;99.90;;;;;;5072967;28;20436;-83
2022/11/06 01:15:37;;;;;;;57.72;27.70;;;6.50;99.90;;;;;;5071783;28;20021;-83
2022/11/06 01:18:02;;;;;;;60.42;27.17;;;6.50;99.90;;;;;;5071697;28;20056;-83
2022/11/06 01:20:28;;;;;;;55.90;29.00;;;6.40;99.90;;;;;;5072906;28;20481;-83
2022/11/06 01:22:53;;;;;;;56.25;27.27;;;6.40;99.90;;;;;;5072745;28;20029;-83
2022/11/06 01:25:19;;;;;;;63.42;28.58;;;6.50;99.90;;;;;;5086473;28;20043;-83
2022/11/06 01:27:44;;;;;;;56.58;27.10;;;6.50;99.90;;;;;;5108879;28;20020;-83
2022/11/06 01:30:10;;;;;;;56.60;27.42;;;6.50;99.90;;;;;;5108635;28;20107;-83
2022/11/06 01:32:36;;;;;;;60.25;28.88;;;6.50;99.90;;;;;;5092913;28;20078;-83
2022/11/06 01:35:02;;;;;;;61.15;29.65;;;6.50;99.90;;;;;;5108606;28;20012;-83
2022/11/06 01:37:27;;;;;;;53.47;27.70;;;6.50;99.90;;;;;;5108663;28;20417;-82
2022/11/06 01:39:53;;;;;;;59.20;28.63;;;6.50;99.90;;;;;;5092722;28;20024;-83
2022/11/06 01:42:19;;;;;;;62.55;29.23;;;6.50;99.90;;;;;;5092750;28;20060;-83
2022/11/06 01:45:13;;;;;;;59.22;27.42;;;6.50;99.90;;;;;;5074739;28;20020;-82
2022/11/06 01:47:38;;;;;;;60.22;27.92;;;6.50;99.90;;;;;;5088262;28;20078;-82
2022/11/06 01:50:08;;;;;;;75.18;31.85;;;6.40;99.90;;;;;;5072625;28;20025;-83
2022/11/06 01:52:35;;;;;;;68.47;34.42;;;6.40;99.90;;;;;;5072616;28;20041;-82
2022/11/06 01:55:09;;;;;;;65.45;33.70;;;6.50;99.90;;;;;;5072675;28;20035;-82
2022/11/06 01:57:35;;;;;;;54.00;29.55;;;6.50;99.90;;;;;;5072640;28;20013;-84
2022/11/06 02:00:01;;;;;;;50.70;27.42;;;6.40;99.90;;;;;;5073069;28;20025;-82
2022/11/06 02:02:27;;;;;;;66.72;30.70;;;6.40;99.90;;;;;;5074898;28;20470;-84
2022/11/06 02:04:52;;;;;;;57.13;25.85;;;6.40;99.90;;;;;;5108967;28;20115;-84
2022/11/06 02:07:19;;;;;;;46.15;23.55;;;6.40;99.90;;;;;;5112364;28;20034;-84
2022/11/06 02:09:45;;;;;;;55.38;25.05;;;6.40;99.90;;;;;;5112081;28;20107;-83
2022/11/06 02:12:29;;;;;;;51.92;24.20;;;6.40;99.90;;;;;;5096323;28;20554;-83
2022/11/06 02:15:09;;;;;;;56.45;25.33;;;6.40;99.90;;;;;;5095113;28;20038;-83
2022/11/06 02:17:56;;;;;;;52.03;23.50;;;6.40;99.90;;;;;;5095070;28;20020;-82
2022/11/06 02:20:36;;;;;;;47.85;23.00;;;6.40;99.90;;;;;;5094938;28;20024;-83
2022/11/06 02:23:26;;;;;;;43.10;23.17;;;6.40;99.90;;;;;;5112071;28;20359;-82
2022/11/06 02:26:17;;;;;;;44.65;22.52;;;6.40;99.90;;;;;;5075937;28;20386;-82
2022/11/06 02:28:52;;;;;;;46.22;24.25;;;6.40;99.90;;;;;;5074684;28;20020;-83
2022/11/06 02:31:25;;;;;;;48.97;23.33;;;6.40;99.90;;;;;;5091038;28;20104;-83
2022/11/06 02:34:00;;;;;;;53.35;24.08;;;6.30;99.90;;;;;;5075286;28;20388;-83
2022/11/06 02:36:30;;;;;;;48.78;25.75;;;6.30;99.90;;;;;;5091311;28;20111;-82
2022/11/06 02:39:02;;;;;;;55.95;25.15;;;6.40;99.90;;;;;;5091316;28;20390;-83
2022/11/06 02:41:32;;;;;;;49.72;24.65;;;6.30;99.90;;;;;;5091040;28;20127;-83
2022/11/06 02:44:00;;;;;;;57.38;26.38;;;6.30;99.90;;;;;;5075569;28;20027;-83
2022/11/06 02:46:39;;;;;;;45.72;24.63;;;6.30;99.90;;;;;;5075371;28;20021;-83
2022/11/06 02:49:22;;;;;;;48.65;27.13;;;6.30;99.90;;;;;;5074186;28;20090;-83
2022/11/06 02:51:55;;;;;;;59.22;32.70;;;6.30;99.90;;;;;;5075182;28;20029;-81
2022/11/06 02:54:23;;;;;;;58.25;31.35;;;6.30;99.90;;;;;;5074220;28;20501;-83
2022/11/06 02:56:51;;;;;;;54.47;27.63;;;6.30;99.90;;;;;;5075320;28;20565;-82
2022/11/06 02:59:37;;;;;;;55.80;27.15;;;6.20;99.90;;;;;;5073819;28;20123;-82
2022/11/06 03:02:07;;;;;;;47.90;25.02;;;6.20;99.90;;;;;;5075296;28;20017;-82
2022/11/06 03:04:43;;;;;;;46.05;23.95;;;6.20;99.90;;;;;;5073876;28;20055;-83
2022/11/06 03:07:18;;;;;;;47.60;25.08;;;6.20;99.90;;;;;;5073804;28;20037;-82
2022/11/06 03:09:44;;;;;;;49.60;25.35;;;6.10;99.90;;;;;;5073904;28;20024;-83
2022/11/06 03:12:50;;;;;;;51.38;24.17;;;6.10;99.90;;;;;;5074126;28;20043;-83
2022/11/06 03:15:34;;;;;;;47.13;24.63;;;6.10;99.90;;;;;;5071226;28;20064;-82
2022/11/06 03:18:34;;;;;;;46.38;22.75;;;6.10;99.90;;;;;;5073581;28;20028;-82
2022/11/06 03:21:29;;;;;;;41.63;19.80;;;6.10;99.90;;;;;;5074925;28;20031;-82
2022/11/06 03:24:02;;;;;;;39.55;19.58;;;6.00;99.90;;;;;;5074754;28;20040;-82
2022/11/06 03:26:39;;;;;;;48.00;22.13;;;6.00;99.90;;;;;;5095131;28;20039;-84
2022/11/06 03:29:32;;;;;;;43.65;22.88;;;5.90;99.90;;;;;;5095091;28;20439;-84
2022/11/06 03:32:06;;;;;;;41.78;21.98;;;5.90;99.90;;;;;;5093384;28;20039;-82
2022/11/06 03:34:41;;;;;;;40.22;20.77;;;6.00;99.90;;;;;;5094812;28;20047;-82
2022/11/06 03:37:17;;;;;;;40.10;21.90;;;6.00;99.90;;;;;;5110536;28;20377;-84
2022/11/06 03:39:49;;;;;;;43.03;20.83;;;6.00;99.90;;;;;;5094912;28;20054;-83
2022/11/06 03:42:20;;;;;;;46.50;23.00;;;5.90;99.90;;;;;;5094866;28;20044;-82
2022/11/06 03:44:51;;;;;;;46.83;21.85;;;5.90;99.90;;;;;;5093454;28;20499;-82
2022/11/06 03:47:32;;;;;;;45.33;23.45;;;5.90;99.90;;;;;;5075542;28;20021;-84
2022/11/06 03:50:26;;;;;;;49.28;24.08;;;5.90;99.90;;;;;;5072968;28;20024;-84
2022/11/06 03:53:08;;;;;;;50.22;25.65;;;5.90;99.90;;;;;;5072804;28;20029;-82
2022/11/06 03:55:40;;;;;;;49.58;25.55;;;5.90;99.90;;;;;;5072921;28;20016;-84
2022/11/06 03:58:19;;;;;;;46.03;23.08;;;5.90;99.90;;;;;;5074104;28;20108;-82
2022/11/06 04:00:46;;;;;;;48.83;24.83;;;5.90;99.90;;;;;;5072774;28;20024;-83
2022/11/06 04:03:37;;;;;;;38.67;20.77;;;5.90;99.90;;;;;;5072740;28;20116;-82
2022/11/06 04:06:28;;;;;;;45.60;24.85;;;5.90;99.90;;;;;;5074026;28;20100;-83
2022/11/06 04:14:32;;;;;;;45.80;23.13;;;5.80;99.90;;;;;;5074212;28;20090;-82
2022/11/06 04:17:02;;;;;;;45.00;22.10;;;5.80;99.90;;;;;;5072332;28;20025;-84
2022/11/06 04:19:28;;;;;;;39.78;22.73;;;5.80;99.90;;;;;;5073805;28;20050;-82
2022/11/06 04:21:53;;;;;;;45.95;22.10;;;5.80;99.90;;;;;;5072310;28;20024;-82
2022/11/06 04:27:25;;;;;;;43.20;21.25;;;5.80;99.90;;;;;;5094110;28;20405;-82
2022/11/06 04:30:05;;;;;;;44.17;22.88;;;5.80;99.90;;;;;;5092431;28;20024;-82
2022/11/06 04:32:49;;;;;;;35.60;19.73;;;5.70;99.90;;;;;;5093599;28;20061;-83
2022/11/06 04:35:50;;;;;;;45.38;21.67;;;5.70;99.90;;;;;;5109461;28;20023;-82
2022/11/06 04:38:34;;;;;;;39.30;20.30;;;5.70;99.90;;;;;;5109264;28;20020;-83
2022/11/06 04:41:11;;;;;;;42.85;20.98;;;5.70;99.90;;;;;;5109239;28;20040;-83
2022/11/06 04:43:59;;;;;;;35.42;18.73;;;5.70;99.90;;;;;;5093533;28;20363;-83
2022/11/06 04:46:39;;;;;;;36.45;18.90;;;5.60;99.90;;;;;;5082936;28;20474;-83
2022/11/06 04:49:06;;;;;;;38.78;20.98;;;5.60;99.90;;;;;;5071878;28;20054;-83
2022/11/06 04:51:36;;;;;;;47.88;23.10;;;5.50;99.90;;;;;;5073217;28;20017;-82
2022/11/06 04:54:02;;;;;;;46.20;22.67;;;5.40;99.90;;;;;;5071778;28;20089;-82
2022/11/06 04:56:32;;;;;;;45.05;21.33;;;5.40;99.90;;;;;;5071895;28;20024;-82
2022/11/06 04:58:57;;;;;;;33.78;20.00;;;5.40;99.90;;;;;;5071823;28;20488;-83
2022/11/06 05:01:23;;;;;;;39.85;22.00;;;5.30;99.90;;;;;;5072028;28;20013;-83
2022/11/06 05:03:49;;;;;;;37.15;19.83;;;5.30;99.90;;;;;;5073038;28;20020;-82
2022/11/06 05:06:15;;;;;;;40.70;20.92;;;5.20;99.90;;;;;;5071864;28;20017;-82
2022/11/06 05:08:41;;;;;;;37.90;21.08;;;5.20;99.90;;;;;;5071860;28;20472;-83
2022/11/06 05:11:06;;;;;;;39.55;19.38;;;5.20;99.90;;;;;;5071715;28;20067;-83
2022/11/06 05:13:32;;;;;;;41.40;20.70;;;5.20;99.90;;;;;;5071609;28;20057;-82
2022/11/06 05:15:58;;;;;;;37.15;18.65;;;5.10;99.90;;;;;;5071640;28;20024;-83
2022/11/06 05:18:25;;;;;;;25.90;15.93;;;5.10;99.90;;;;;;5073055;28;20024;-83
2022/11/06 05:22:56;;;;;;;33.40;14.65;;;5.00;99.90;;;;;;5073144;28;20094;-82
2022/11/06 05:23:37;;;;;;;27.63;13.55;;;5.00;99.90;;;;;;5074972;28;20112;-81
2022/11/06 05:26:03;;;;;;;28.52;12.93;;;4.90;99.90;;;;;;5093241;28;20063;-84
2022/11/06 05:28:29;;;;;;;29.63;13.52;;;4.90;99.90;;;;;;5108709;28;20028;-81
2022/11/06 05:30:55;;;;;;;24.88;11.80;;;4.80;99.90;;;;;;5091801;28;20030;-83
2022/11/06 05:33:21;;;;;;;23.98;11.68;;;4.80;99.90;;;;;;5091567;28;20036;-83
2022/11/06 05:35:46;;;;;;;26.95;11.52;;;4.70;99.90;;;;;;5094994;28;20075;-82
2022/11/06 05:38:12;;;;;;;27.75;13.07;;;4.70;99.90;;;;;;5112686;28;20017;-81
2022/11/06 05:40:37;;;;;;;32.05;12.10;;;4.70;99.90;;;;;;5096905;28;20055;-83
2022/11/06 05:43:03;;;;;;;31.67;13.75;;;4.70;99.90;;;;;;5096947;28;20023;-81
2022/11/06 05:45:29;;;;;;;25.25;12.73;;;4.60;99.90;;;;;;5092519;28;20497;-81
2022/11/06 05:47:54;;;;;;;23.85;12.05;;;4.60;99.90;;;;;;5076685;28;20490;-83
2022/11/06 05:50:20;;;;;;;22.83;12.82;;;4.60;99.90;;;;;;5076495;28;20012;-81
2022/11/06 05:52:45;;;;;;;25.50;13.73;;;4.50;99.90;;;;;;5076482;28;20121;-83
2022/11/06 05:55:11;;;;;;;26.52;14.07;;;4.50;99.90;;;;;;5076359;28;20032;-81
2022/11/06 05:57:37;;;;;;;25.60;12.90;;;4.50;99.90;;;;;;5075206;28;20478;-84
2022/11/06 06:00:04;;;;;;;26.25;14.63;;;4.50;99.90;;;;;;5076209;28;20024;-84
2022/11/06 06:02:30;;;;;;;29.02;13.93;;;4.40;99.90;;;;;;5076295;28;20024;-82
2022/11/06 06:04:55;;;;;;;38.38;14.95;;;4.40;99.90;;;;;;5076167;28;20394;-84
2022/11/06 06:07:21;;;;;;;30.85;17.35;;;4.40;99.90;;;;;;5076275;28;20367;-84
2022/11/06 06:09:47;;;;;;;37.55;18.20;;;4.30;99.90;;;;;;5076058;28;20095;-81
2022/11/06 06:12:12;;;;;;;36.55;15.27;;;4.30;99.90;;;;;;5076137;28;20033;-84
2022/11/06 06:14:38;;;;;;;39.05;16.10;;;4.30;99.90;;;;;;5076057;28;20020;-81
2022/11/06 06:17:04;;;;;;;51.22;15.98;;;4.30;99.90;;;;;;5074932;28;20028;-81
2022/11/06 06:19:29;;;;;;;46.15;15.23;;;4.30;99.90;;;;;;5075864;28;20428;-81
2022/11/06 06:21:55;;;;;;;71.47;17.42;;;4.30;99.90;;;;;;5076001;28;20028;-81
2022/11/06 06:24:21;;;;;;;126.03;20.70;;;4.30;99.90;;;;;;5083213;28;20587;-84
2022/11/06 06:26:46;;;;;;;122.10;20.15;;;4.30;99.90;;;;;;5111878;28;20355;-84
2022/11/06 06:29:12;;;;;;;116.28;18.05;;;4.20;99.90;;;;;;5095912;28;20492;-81
2022/11/06 06:31:37;;;;;;;59.80;14.07;;;4.20;99.90;;;;;;5096182;28;20128;-84
2022/11/06 06:34:03;;;;;;;65.85;14.02;;;4.20;99.90;;;;;;5111503;28;20038;-81
2022/11/06 06:36:28;;;;;;;94.68;17.50;;;4.20;99.90;;;;;;5111777;28;20042;-81
2022/11/06 06:38:54;;;;;;;48.20;16.35;;;4.30;99.90;;;;;;5095960;28;20032;-81
2022/11/06 06:41:20;;;;;;;68.35;21.63;;;4.20;99.90;;;;;;5111705;28;20056;-81
2022/11/06 06:43:52;;;;;;;117.40;27.48;;;4.30;99.90;;;;;;5111613;28;20024;-80
2022/11/06 06:46:17;;;;;;;70.57;23.30;;;4.20;99.90;;;;;;5084520;28;20048;-81
2022/11/06 06:48:43;;;;;;;61.38;18.52;;;4.30;99.90;;;;;;5075210;28;20033;-81
2022/11/06 06:51:08;;;;;;;40.53;17.33;;;4.30;99.90;;;;;;5073868;28;20024;-84
2022/11/06 06:53:35;;;;;;;53.90;16.92;;;4.40;99.90;;;;;;5074032;28;20127;-81
2022/11/06 06:56:01;;;;;;;40.60;15.10;;;4.40;99.90;;;;;;5075302;28;20060;-81
2022/11/06 06:58:30;;;;;;;57.28;18.65;;;4.40;99.90;;;;;;5074013;28;20020;-81
2022/11/06 07:01:03;;;;;;;66.03;20.23;;;4.50;99.90;;;;;;5074012;28;20016;-81
2022/11/06 07:03:29;;;;;;;44.88;17.85;;;4.50;99.90;;;;;;5075186;28;20051;-84
2022/11/06 07:05:57;;;;;;;46.67;17.80;;;4.50;99.90;;;;;;5074979;28;20025;-84
2022/11/06 07:08:23;;;;;;;34.08;16.52;;;4.50;99.90;;;;;;5073903;28;20024;-82
2022/11/06 07:10:49;;;;;;;38.22;19.10;;;4.50;99.90;;;;;;5073727;28;20025;-82
2022/11/06 07:13:14;;;;;;;48.80;23.70;;;4.50;99.90;;;;;;5073748;28;20170;-83
2022/11/06 07:15:40;;;;;;;40.90;23.10;;;4.50;99.90;;;;;;5074967;28;20024;-82
2022/11/06 07:18:06;;;;;;;49.00;24.13;;;4.60;99.90;;;;;;5073664;28;20111;-84
2022/11/06 07:20:33;;;;;;;65.15;28.23;;;4.70;99.90;;;;;;5074824;28;20082;-81
2022/11/06 07:23:04;;;;;;;60.70;26.92;;;4.80;99.90;;;;;;5073736;28;20036;-81
2022/11/06 07:25:30;;;;;;;47.30;23.77;;;4.80;99.90;;;;;;5083670;28;20057;-84
2022/11/06 07:28:00;;;;;;;56.53;28.80;;;4.90;99.90;;;;;;5073482;28;20177;-81
2022/11/06 07:30:26;;;;;;;53.05;27.77;;;4.90;99.90;;;;;;5074677;28;20117;-81
2022/11/06 07:32:51;;;;;;;50.88;29.50;;;5.00;99.90;;;;;;5073279;28;20064;-83
2022/11/06 07:35:17;;;;;;;52.08;27.58;;;5.00;99.90;;;;;;5073197;28;20021;-82
2022/11/06 07:37:43;;;;;;;51.00;24.38;;;5.10;99.90;;;;;;5073412;28;20024;-84
2022/11/06 07:40:09;;;;;;;52.83;27.35;;;5.10;99.90;;;;;;5074224;28;20036;-84
2022/11/06 07:42:35;;;;;;;51.22;26.00;;;5.20;99.90;;;;;;5073178;28;20482;-81
2022/11/06 07:45:01;;;;;;;45.33;24.25;;;5.30;99.90;;;;;;5089188;28;20055;-84
2022/11/06 07:47:28;;;;;;;52.10;24.40;;;5.40;99.90;;;;;;5074293;28;20103;-80
2022/11/06 07:49:54;;;;;;;46.15;23.70;;;5.60;99.90;;;;;;5073020;28;20534;-83
2022/11/06 07:52:20;;;;;;;48.55;28.08;;;5.70;99.90;;;;;;5074125;28;20036;-84
2022/11/06 07:54:46;;;;;;;55.97;30.70;;;5.80;99.90;;;;;;5072933;28;20032;-81
2022/11/06 07:57:12;;;;;;;45.25;25.00;;;6.00;99.90;;;;;;5072659;28;20432;-84
2022/11/06 07:59:38;;;;;;;41.33;23.80;;;6.10;99.90;;;;;;5073751;28;20028;-84
2022/11/06 08:02:03;;;;;;;37.08;19.55;;;6.20;99.90;;;;;;5073996;28;20066;-80
2022/11/06 08:04:29;;;;;;;32.50;18.83;;;6.40;99.90;;;;;;5073890;28;20521;-84
2022/11/06 08:06:56;;;;;;;35.08;20.27;;;6.50;99.90;;;;;;5073845;28;20028;-84
2022/11/06 08:09:23;;;;;;;34.55;20.75;;;6.70;99.90;;;;;;5073794;28;20424;-83
2022/11/06 08:11:50;;;;;;;43.45;23.38;;;6.80;99.90;;;;;;5072283;28;20031;-83
2022/11/06 08:14:16;;;;;;;39.60;22.55;;;7.00;99.90;;;;;;5072403;28;20035;-80
2022/11/06 08:16:41;;;;;;;30.50;18.70;;;7.20;99.90;;;;;;5072328;28;20016;-80
2022/11/06 08:19:07;;;;;;;23.98;11.27;;;7.40;99.90;;;;;;5073660;28;20020;-85
2022/11/06 08:21:33;;;;;;;19.33;9.82;;;7.50;99.90;;;;;;5073613;28;20040;-84
2022/11/06 08:23:59;;;;;;;13.48;7.35;;;7.60;99.90;;;;;;5079816;28;20024;-82
2022/11/06 08:26:24;;;;;;;16.48;8.45;;;7.80;99.90;;;;;;5092505;28;20020;-84
2022/11/06 08:28:50;;;;;;;20.17;7.22;;;7.90;99.90;;;;;;5092487;28;20016;-85
2022/11/06 08:31:16;;;;;;;13.52;7.07;;;8.00;99.90;;;;;;5092298;28;20074;-84
2022/11/06 08:33:41;;;;;;;18.55;7.32;;;8.20;99.90;;;;;;5080705;28;20119;-85
2022/11/06 08:36:08;;;;;;;11.60;6.20;;;8.30;99.90;;;;;;5073237;28;20067;-85
2022/11/06 08:38:35;;;;;;;12.25;5.82;;;8.40;99.90;;;;;;5072018;28;20024;-81
2022/11/06 08:41:07;;;;;;;24.15;9.60;;;8.50;99.90;;;;;;5073144;28;20064;-80
2022/11/06 08:43:33;;;;;;;17.48;9.07;;;8.70;99.90;;;;;;5071926;28;20028;-82
2022/11/06 08:45:59;;;;;;;21.33;9.15;;;8.80;99.90;;;;;;5072993;28;20021;-83
2022/11/06 08:48:24;;;;;;;13.65;8.27;;;8.90;99.90;;;;;;5073205;28;20025;-81
2022/11/06 08:50:50;;;;;;;17.98;10.05;;;9.00;99.90;;;;;;5071838;28;20025;-80
2022/11/06 08:53:16;;;;;;;18.58;9.50;;;9.10;99.90;;;;;;5090657;28;20031;-74
2022/11/06 08:55:41;;;;;;;17.15;8.00;;;9.30;99.90;;;;;;5093342;28;20162;-79
2022/11/06 08:58:07;;;;;;;14.77;8.10;;;9.40;99.90;;;;;;5093031;28;20051;-79
2022/11/06 09:00:33;;;;;;;12.80;6.72;;;9.40;99.90;;;;;;5093183;28;20024;-74
2022/11/06 09:03:04;;;;;;;11.07;6.72;;;9.60;99.90;;;;;;5091466;28;20023;-75
2022/11/06 09:05:30;;;;;;;11.70;7.93;;;9.60;99.90;;;;;;5091787;28;20529;-72
2022/11/06 09:07:57;;;;;;;11.50;6.47;;;9.80;99.90;;;;;;5092780;28;20060;-75
2022/11/06 09:10:23;;;;;;;12.52;7.32;;;9.90;99.90;;;;;;5092189;28;20024;-72
2022/11/06 09:12:50;;;;;;;12.32;5.78;;;10.00;99.90;;;;;;5092744;28;20067;-72
2022/11/06 09:15:15;;;;;;;12.98;5.68;;;10.10;99.90;;;;;;5093086;28;20093;-75
2022/11/06 09:17:49;;;;;;;15.98;6.50;;;10.10;99.90;;;;;;5091563;28;20112;-72
2022/11/06 09:20:20;;;;;;;9.23;4.95;;;10.30;99.90;;;;;;5093131;28;20042;-73
2022/11/06 09:22:46;;;;;;;20.10;7.15;;;10.40;99.90;;;;;;5092772;28;20032;-76
2022/11/06 09:25:13;;;;;;;10.68;6.25;;;10.60;99.90;;;;;;5074758;28;20021;-72
2022/11/06 09:27:50;;;;;;;10.20;6.15;;;10.60;99.90;;;;;;5088376;28;20457;-73
2022/11/06 09:30:18;;;;;;;10.95;5.85;;;10.60;99.90;;;;;;5072842;28;20086;-76
2022/11/06 09:32:50;;;;;;;10.70;5.03;;;10.40;99.90;;;;;;5072528;28;20043;-72
2022/11/06 09:35:16;;;;;;;7.13;4.05;;;10.20;99.90;;;;;;5072639;28;20048;-72
2022/11/06 09:37:42;;;;;;;7.57;3.53;;;10.10;99.90;;;;;;5072759;28;20056;-75
2022/11/06 09:40:38;;;;;;;10.02;4.80;;;10.00;99.90;;;;;;5071071;28;20020;-75
2022/11/06 09:43:18;;;;;;;8.23;4.60;;;9.80;99.90;;;;;;5071859;28;20033;-76
2022/11/06 09:45:47;;;;;;;12.13;4.80;;;9.80;99.90;;;;;;5071042;28;20479;-76
2022/11/06 09:48:18;;;;;;;8.32;4.63;;;9.60;99.90;;;;;;5069128;28;20482;-71
2022/11/06 09:50:57;;;;;;;9.45;4.35;;;9.70;99.90;;;;;;5070680;28;20081;-76
2022/11/06 09:53:29;;;;;;;7.53;3.38;;;9.60;99.90;;;;;;5071218;28;20430;-76
2022/11/06 09:55:56;;;;;;;7.53;3.10;;;9.60;99.90;;;;;;5070153;28;20032;-72
2022/11/06 09:58:48;;;;;;;15.88;4.35;;;9.50;99.90;;;;;;5072591;28;20017;-76
2022/11/06 10:01:23;;;;;;;9.40;3.10;;;9.50;99.90;;;;;;5070466;28;20110;-72
2022/11/06 10:04:02;;;;;;;7.10;2.92;;;9.40;99.90;;;;;;5072583;28;20028;-76
2022/11/06 10:06:28;;;;;;;10.18;3.33;;;9.60;99.90;;;;;;5070474;28;20020;-76
2022/11/06 10:09:05;;;;;;;9.77;3.17;;;9.60;99.90;;;;;;5071937;28;20054;-72
2022/11/06 10:12:00;;;;;;;10.25;4.13;;;9.90;99.90;;;;;;5071265;28;20111;-72
2022/11/06 10:14:25;;;;;;;10.93;5.25;;;10.10;99.90;;;;;;5071809;28;20047;-76
2022/11/06 10:17:15;;;;;;;15.10;5.75;;;10.40;99.90;;;;;;5070204;28;20037;-73
2022/11/06 10:20:07;;;;;;;8.77;4.78;;;10.60;99.90;;;;;;5071363;28;20028;-75
2022/11/06 10:22:45;;;;;;;11.23;5.03;;;10.70;99.90;;;;;;5074117;28;20527;-76
2022/11/06 10:25:23;;;;;;;12.80;4.85;;;10.80;99.90;;;;;;5083641;28;20394;-76
2022/11/06 10:28:10;;;;;;;10.82;4.75;;;10.80;99.90;;;;;;5091476;28;20108;-76
2022/11/06 10:31:33;;;;;;;7.45;4.53;;;10.90;99.90;;;;;;5091578;28;20055;-73
2022/11/06 10:34:05;;;;;;;8.02;4.82;;;10.90;99.90;;;;;;5032735;28;20068;-75
2022/11/06 10:36:36;;;;;;;14.83;6.20;;;10.90;99.90;;;;;;5075930;28;20404;-73
2022/11/06 10:39:08;;;;;;;10.75;5.40;;;10.80;99.90;;;;;;5075591;28;20024;-72
2022/11/06 10:41:37;;;;;;;13.30;4.70;;;10.90;99.90;;;;;;5075796;28;20105;-73
2022/11/06 10:44:12;;;;;;;10.80;5.47;;;10.80;99.90;;;;;;5075505;28;20259;-77
2022/11/06 10:47:17;;;;;;;7.53;4.20;;;10.80;99.90;;;;;;5075543;28;20028;-73
2022/11/06 10:49:57;;;;;;;6.88;3.67;;;10.90;99.90;;;;;;5067745;28;20063;-76
2022/11/06 10:53:01;;;;;;;8.10;4.28;;;10.90;99.90;;;;;;5075480;28;20080;-77
2022/11/06 10:55:54;;;;;;;5.82;3.55;;;10.90;99.90;;;;;;5075366;28;20024;-77
2022/11/06 10:58:25;;;;;;;9.57;4.03;;;10.90;99.90;;;;;;5073930;28;20034;-73
2022/11/06 11:00:53;;;;;;;8.77;4.00;;;10.80;99.90;;;;;;5074058;28;20067;-77
2022/11/06 11:03:42;;;;;;;6.20;3.90;;;10.80;99.90;;;;;;5075191;28;20060;-77
2022/11/06 11:06:08;;;;;;;9.68;3.13;;;10.60;99.90;;;;;;5075160;28;20022;-77
2022/11/06 11:08:41;;;;;;;11.57;3.58;;;10.60;99.90;;;;;;5073783;28;20479;-78
2022/11/06 11:11:12;;;;;;;;;;;10.50;99.90;;;;;;5075657;28;20036;-75
2022/11/06 11:13:45;;;;;;;8.07;2.72;;;10.60;99.90;;;;;;5073667;28;19935;-73
2022/11/06 11:16:26;;;;;;;6.05;2.25;;;10.50;99.90;;;;;;5075115;28;20032;-73
2022/11/06 11:18:52;;;;;;;6.82;2.28;;;10.40;99.90;;;;;;5074982;28;20013;-77
2022/11/06 11:21:18;;;;;;;6.85;2.28;;;10.30;99.90;;;;;;5073690;28;20390;-77
2022/11/06 11:23:59;;;;;;;10.15;1.85;;;10.30;99.90;;;;;;5074966;28;20044;-74
2022/11/06 11:26:28;;;;;;;8.27;3.13;;;10.30;99.90;;;;;;5074901;28;20039;-77
2022/11/06 11:28:55;;;;;;;5.80;2.15;;;10.20;98.00;;;;;;5074786;28;20027;-78
2022/11/06 11:31:29;;;;;;;7.00;2.47;;;10.20;98.10;;;;;;5073555;28;20025;-77
2022/11/06 11:33:57;;;;;;;4.22;2.72;;;10.10;99.20;;;;;;5073629;28;20490;-73
2022/11/06 11:36:23;;;;;;;5.88;3.22;;;10.10;99.90;;;;;;5074548;28;20060;-73
2022/11/06 11:38:50;;;;;;;4.72;3.28;;;10.10;99.90;;;;;;5073362;28;20039;-74
2022/11/06 11:41:18;;;;;;;9.48;3.20;;;10.10;99.90;;;;;;5074231;28;20044;-73
2022/11/06 11:43:55;;;;;;;7.82;3.25;;;10.10;99.90;;;;;;5073298;28;20104;-73
2022/11/06 11:46:20;;;;;;;8.50;3.50;;;10.10;99.90;;;;;;5072255;28;20386;-73
2022/11/06 11:48:54;;;;;;;12.68;3.75;;;10.20;99.90;;;;;;5072285;28;20029;-77
2022/11/06 11:51:31;;;;;;;7.80;3.10;;;10.20;99.90;;;;;;5070178;28;20501;-73
2022/11/06 11:53:59;;;;;;;9.15;3.40;;;10.30;99.90;;;;;;5066080;28;20032;-77
2022/11/06 11:56:27;;;;;;;8.15;3.65;;;10.40;99.90;;;;;;5051919;28;20025;-73
2022/11/06 11:58:55;;;;;;;7.45;3.15;;;10.40;99.90;;;;;;5051737;28;20501;-78
2022/11/06 12:01:39;;;;;;;7.03;3.30;;;10.50;99.90;;;;;;5054086;28;20463;-77
2022/11/06 12:04:24;;;;;;;6.65;3.67;;;10.60;99.90;;;;;;5069436;28;20051;-74
2022/11/06 12:06:57;;;;;;;7.20;3.42;;;10.70;99.90;;;;;;5054147;28;20025;-74
2022/11/06 12:09:25;;;;;;;8.88;4.05;;;10.70;99.90;;;;;;5054170;28;20028;-74
2022/11/06 12:11:53;;;;;;;6.22;4.28;;;10.80;99.90;;;;;;5069192;28;20382;-74
2022/11/06 12:14:25;;;;;;;8.73;3.65;;;10.80;99.90;;;;;;5053790;28;20048;-75
2022/11/06 12:17:13;;;;;;;6.28;3.80;;;10.80;99.90;;;;;;5052502;28;20032;-78
2022/11/06 12:19:43;;;;;;;9.82;4.20;;;10.90;99.90;;;;;;5064342;28;20043;-74
2022/11/06 12:22:28;;;;;;;6.88;3.63;;;10.80;99.90;;;;;;5053693;28;20102;-73
2022/11/06 12:24:59;;;;;;;5.10;3.75;;;10.80;99.90;;;;;;5082496;28;20486;-74
2022/11/06 12:27:33;;;;;;;8.75;4.45;;;10.90;99.90;;;;;;5092094;28;20024;-78
2022/11/06 12:30:11;;;;;;;8.95;3.42;;;10.90;99.90;;;;;;5093961;28;20487;-77
2022/11/06 12:33:04;;;;;;;12.95;4.13;;;11.00;99.90;;;;;;5093475;28;20492;-77
2022/11/06 12:35:39;;;;;;;7.97;4.38;;;11.00;99.90;;;;;;5093506;28;20537;-76
2022/11/06 12:38:29;;;;;;;10.63;4.38;;;11.10;99.90;;;;;;5077608;28;20060;-76
2022/11/06 12:41:01;;;;;;;9.00;3.53;;;11.00;99.90;;;;;;5071886;28;20060;-76
2022/11/06 12:43:47;;;;;;;6.03;3.85;;;11.00;99.90;;;;;;5073359;28;20398;-77
2022/11/06 12:46:39;;;;;;;10.13;4.22;;;11.00;99.90;;;;;;5071813;28;20115;-77
2022/11/06 12:49:29;;;;;;;5.67;3.57;;;11.00;99.90;;;;;;5071999;28;20028;-75
2022/11/06 12:52:27;;;;;;;9.90;5.20;;;10.90;99.90;;;;;;5072742;28;20036;-76
2022/11/06 12:55:02;;;;;;;9.88;4.45;;;10.90;99.90;;;;;;5072537;28;20070;-74
2022/11/06 12:57:53;;;;;;;9.48;4.57;;;10.80;99.90;;;;;;5073213;28;20029;-74
2022/11/06 13:00:21;;;;;;;8.60;4.57;;;10.70;99.90;;;;;;5067219;28;20032;-76
2022/11/06 13:03:17;;;;;;;16.52;4.82;;;10.70;99.90;;;;;;5072507;28;20016;-77
2022/11/06 13:06:13;;;;;;;14.93;5.05;;;10.70;99.90;;;;;;5072857;28;20043;-73
2022/11/06 13:08:59;;;;;;;12.77;6.10;;;10.70;99.90;;;;;;5071688;28;20037;-74
2022/11/06 13:11:28;;;;;;;7.93;4.10;;;10.60;99.90;;;;;;5072370;28;20020;-77
2022/11/06 13:14:13;;;;;;;8.38;4.13;;;10.70;99.90;;;;;;5072319;28;20123;-77
2022/11/06 13:17:04;;;;;;;9.20;4.72;;;10.70;99.90;;;;;;5071520;28;20056;-76